Αρχική σελίδα
METAR-TAF:

METAR-TAF

Αεροδρόμια :

Foz do Iguaçu, Παρανά, Βραζιλία

γεωγραφικό πλάτος: 25-31S, γεωγραφικό μήκος: 054-35W, υψόμετρο: 180 μ

Παρών καιρός

Η αναφορά έγινε 1 ώρα και 0 λεπτά πριν, στις 12:00 UTC
Άνεμος 6 kt από Α
Θερμοκρασία 25°C
Υγρασία 69%
Πίεση 1018 hPa
Ορατότητα 10 χλμ και άνω
Διάσπαρτα νέφη σε ύψος 3000 πόδια
Αρκετά νέφη σε ύψος 7000 πόδια

METAR: SBFI 221200Z 10006KT 9999 SCT030 BKN070 25/19 Q1018

Χρόνος: 10:00 (13:00 UTC)

Πρόγνωση Καιρού

Η αναφορά έγινε 3 ώρες και 15 λεπτά πριν, στις 09:45 UTC
Η πρόγνωση ισχύει από τις 22 στις 12 UTC έως τις 23 στις 12 UTC
Άνεμος 6 kt από Ν
Ορατότητα 10 χλμ και άνω
Λίγα νέφη σε ύψος 1800 πόδια
Καθιστάμενος
από 22 στις 16 UTC έως τις 22 στις 18 UTC
Άνεμος 5 kt από Α/BA
Διάσπαρτα νέφη σε ύψος 3000 πόδια

TAF: SBFI 220945Z 2212/2312 19006KT 9999 FEW018 TX28/2218Z TN18/2308Z BECMG 2216/2218 06005KT SCT030 RMK PEB

Μετεωρολογικές αναφορές και προγνώσεις για περισσότερα από 4000 αεροδρόμια (δελτία METAR και TAF).

Οι διαθέσιμοι σταθμοί απεικονίζονται στο χάρτη με κίτρινες και κόκκινες κουκκίδες.

Μετακινήστε το ποντίκι πάνω από τις κουκκίδες για να δείτε το όνομα του σταθμού.

Στη συνέχεια, κάντε κλικ για να δείτε τις μετεωρολογικές αναφορές και τις προγνώσεις καιρού.

Για να αλλάξετε το χάρτη: κάντε κλικ στα πράσινα κουμπιά με τον μαύρο σταυρό για να ζουμάρετε, στο πράσινο κουμπί με την παύλα για να αφαιρέσετε το ζουμ ή στα πράσινα βέλη για να αντιπαραβάλλετε χάρτες.


METAR-TAF: